Odenton, Maryland
Current Conditions -  °F | °C
As of 11:48 PM on Monday 20 Oct 2014 (Local Time) from KFME Reporting Station
Overcast Overcast  
Wind Chill: 50°   Ceiling: 7000
Heat Index: 50°   Visibility: 10mi
Dew Point: 46°   Wind: 9mph
Humidity: 87%   Direction: 190°S
Pressure: 29.96"   Gusts: NA
Location:  39.08°N, 76.69°W
Report Text: KFME 210348Z AUTO 19008KT 10SM BKN070 OVC100 10/08 A2996 RMK AO1
Loading
Personal Weather Stations






























Interactive Weather Map
Tropical Storm Tracking
New forecast layout! Learn more

10-Day Weather Forecast

Advertisements
Track Severe Weather on mobile